createdAt,value
2017-10-07T00:01:57.316Z,3.20
2017-10-07T00:04:24.757Z,2.27
2017-10-07T00:06:52.214Z,2.93
2017-10-07T00:09:19.643Z,2.53
2017-10-07T00:11:47.071Z,2.60
2017-10-07T00:14:14.519Z,2.57
2017-10-07T00:16:42.730Z,2.90
2017-10-07T00:19:10.164Z,3.00
2017-10-07T00:21:37.595Z,2.87
2017-10-07T00:24:05.039Z,3.80
2017-10-07T00:26:32.479Z,3.27
2017-10-07T00:28:59.930Z,2.83
2017-10-07T00:31:27.368Z,3.50
2017-10-07T00:33:54.805Z,3.47
2017-10-07T00:36:22.230Z,3.10
2017-10-07T00:38:49.671Z,3.70
2017-10-07T00:41:17.099Z,3.07
2017-10-07T00:43:44.543Z,3.67
2017-10-07T00:46:11.975Z,2.60
2017-10-07T00:48:40.183Z,2.90
2017-10-07T00:51:07.630Z,2.80
2017-10-07T00:53:35.071Z,2.70
2017-10-07T00:56:02.511Z,3.03
2017-10-07T00:58:29.962Z,2.60
2017-10-07T01:00:57.404Z,2.60
2017-10-07T01:03:24.862Z,3.57
2017-10-07T01:05:52.307Z,3.63
2017-10-07T01:08:19.742Z,2.70
2017-10-07T01:10:47.186Z,2.73
2017-10-07T01:13:14.631Z,2.30
2017-10-07T01:15:42.086Z,2.47
2017-10-07T01:18:09.531Z,2.40
2017-10-07T01:20:36.975Z,2.30
2017-10-07T01:23:04.416Z,2.87
2017-10-07T01:25:31.862Z,2.60
2017-10-07T01:27:59.299Z,2.00
2017-10-07T01:30:27.555Z,2.50
2017-10-07T01:32:54.996Z,2.43
2017-10-07T01:35:22.746Z,2.50
2017-10-07T01:37:51.086Z,2.70
2017-10-07T01:40:18.527Z,2.20
2017-10-07T01:42:45.962Z,2.47
2017-10-07T01:45:13.410Z,2.50
2017-10-07T01:47:40.843Z,2.30
2017-10-07T01:50:08.286Z,2.70
2017-10-07T01:52:36.500Z,2.57
2017-10-07T01:55:03.965Z,2.40
2017-10-07T01:57:31.403Z,2.80
2017-10-07T01:59:58.865Z,2.40
2017-10-07T02:02:26.310Z,2.50
2017-10-07T02:04:53.767Z,3.63
2017-10-07T02:07:21.198Z,2.53
2017-10-07T02:09:49.415Z,2.40
2017-10-07T02:12:16.879Z,2.77
2017-10-07T02:14:44.327Z,4.00
2017-10-07T02:17:11.771Z,2.90
2017-10-07T02:19:39.207Z,3.40
2017-10-07T02:22:06.650Z,2.80
2017-10-07T02:24:34.855Z,2.43
2017-10-07T02:27:02.311Z,2.57
2017-10-07T02:29:29.751Z,3.03
2017-10-07T02:31:57.195Z,2.33
2017-10-07T02:34:25.406Z,2.67
2017-10-07T02:36:52.872Z,2.70
2017-10-07T02:39:20.296Z,2.30
2017-10-07T02:41:47.737Z,2.40
2017-10-07T02:44:15.951Z,2.70
2017-10-07T02:46:43.395Z,2.87
2017-10-07T02:49:10.844Z,2.93
2017-10-07T02:51:38.283Z,2.87
2017-10-07T02:54:05.718Z,2.70
2017-10-07T02:56:33.941Z,2.80
2017-10-07T02:59:01.379Z,2.83
2017-10-07T03:01:28.846Z,2.50
2017-10-07T03:03:56.285Z,2.90
2017-10-07T03:06:23.719Z,3.00
2017-10-07T03:08:51.162Z,3.13
2017-10-07T03:11:18.606Z,2.80
2017-10-07T03:13:46.051Z,2.57
2017-10-07T03:16:13.492Z,2.63
2017-10-07T03:18:40.940Z,3.20
2017-10-07T03:21:08.374Z,2.70
2017-10-07T03:23:35.811Z,2.50
2017-10-07T03:26:03.251Z,2.60
2017-10-07T03:28:30.701Z,2.90
2017-10-07T03:30:58.143Z,3.37
2017-10-07T03:33:25.583Z,3.37
2017-10-07T03:35:53.028Z,2.67
2017-10-07T03:38:20.468Z,3.00
2017-10-07T03:40:47.904Z,2.73
2017-10-07T03:43:15.362Z,3.00
2017-10-07T03:45:42.803Z,3.30
2017-10-07T03:48:10.243Z,3.20
2017-10-07T03:50:37.686Z,2.80
2017-10-07T03:53:05.127Z,2.70
2017-10-07T03:55:32.571Z,3.13
2017-10-07T03:58:00.002Z,2.40
2017-10-07T04:00:28.206Z,2.67
2017-10-07T04:02:55.646Z,2.60
2017-10-07T04:05:23.087Z,2.67
2017-10-07T04:07:51.291Z,2.70
2017-10-07T04:10:18.734Z,2.33
2017-10-07T04:12:46.171Z,2.63
2017-10-07T04:15:13.606Z,2.40
2017-10-07T04:17:41.047Z,2.73
2017-10-07T04:20:08.504Z,2.70
2017-10-07T04:22:35.935Z,3.50
2017-10-07T04:25:03.407Z,2.47
2017-10-07T04:27:30.846Z,2.77
2017-10-07T04:29:58.292Z,3.03
2017-10-07T04:32:25.744Z,2.87
2017-10-07T04:34:53.179Z,2.77
2017-10-07T04:37:21.391Z,2.50
2017-10-07T04:39:48.835Z,2.80
2017-10-07T04:42:16.291Z,2.63
2017-10-07T04:44:43.726Z,2.80
2017-10-07T04:47:11.161Z,3.07
2017-10-07T04:49:38.591Z,3.40
2017-10-07T04:52:06.047Z,3.63
2017-10-07T04:54:33.481Z,3.27
2017-10-07T04:57:00.925Z,3.43
2017-10-07T04:59:28.359Z,3.40
2017-10-07T05:01:56.566Z,3.63
2017-10-07T05:04:24.011Z,3.10
2017-10-07T05:06:51.473Z,3.30
2017-10-07T05:09:18.923Z,3.40
2017-10-07T05:11:46.391Z,4.27
2017-10-07T05:14:13.839Z,3.83
2017-10-07T05:16:41.262Z,3.30
2017-10-07T05:19:08.715Z,3.40
2017-10-07T05:21:36.154Z,3.00
2017-10-07T05:24:03.595Z,3.50
2017-10-07T05:26:31.048Z,3.20
2017-10-07T05:28:58.523Z,3.23
2017-10-07T05:31:25.967Z,3.30
2017-10-07T05:33:53.404Z,3.60
2017-10-07T05:36:20.837Z,3.87
2017-10-07T05:38:48.279Z,2.97
2017-10-07T05:41:15.726Z,3.17
2017-10-07T05:43:43.940Z,3.57
2017-10-07T05:46:11.380Z,3.50
2017-10-07T05:48:38.815Z,3.97
2017-10-07T05:51:06.247Z,3.50
2017-10-07T05:53:33.695Z,3.50
2017-10-07T05:56:01.166Z,3.17
2017-10-07T05:58:28.621Z,3.00
2017-10-07T06:00:56.055Z,3.60
2017-10-07T06:03:23.515Z,4.07
2017-10-07T06:05:52.875Z,3.63
2017-10-07T06:08:20.314Z,4.40
2017-10-07T06:10:48.067Z,3.87
2017-10-07T06:13:16.271Z,3.87
2017-10-07T06:15:43.736Z,3.47
2017-10-07T06:18:11.181Z,4.07
2017-10-07T06:20:38.632Z,4.40
2017-10-07T06:23:06.074Z,4.57
2017-10-07T06:25:33.525Z,3.50
2017-10-07T06:28:00.975Z,3.57
2017-10-07T06:30:29.199Z,4.23
2017-10-07T06:32:56.759Z,4.00
2017-10-07T06:35:24.322Z,4.63
2017-10-07T06:37:51.857Z,3.80
2017-10-07T06:40:19.310Z,3.47
2017-10-07T06:42:46.757Z,3.63
2017-10-07T06:45:14.214Z,3.53
2017-10-07T06:47:41.663Z,3.77
2017-10-07T06:50:09.131Z,3.47
2017-10-07T06:52:36.586Z,4.30
2017-10-07T06:55:04.032Z,4.30
2017-10-07T06:57:31.482Z,4.50
2017-10-07T06:59:58.927Z,4.87
2017-10-07T07:02:27.148Z,5.00
2017-10-07T07:04:54.605Z,4.40
2017-10-07T07:07:22.048Z,5.00
2017-10-07T07:09:49.498Z,4.30
2017-10-07T07:12:16.953Z,4.80
2017-10-07T07:14:44.411Z,3.87
2017-10-07T07:17:11.870Z,5.83
2017-10-07T07:19:40.056Z,4.67
2017-10-07T07:22:07.494Z,4.20
2017-10-07T07:24:34.950Z,4.30
2017-10-07T07:27:02.421Z,5.00
2017-10-07T07:29:29.865Z,4.90
2017-10-07T07:31:58.151Z,4.80
2017-10-07T07:34:25.594Z,5.40
2017-10-07T07:36:53.039Z,5.23
2017-10-07T07:39:20.480Z,4.60
2017-10-07T07:41:48.703Z,4.83
2017-10-07T07:44:16.173Z,4.40
2017-10-07T07:46:43.634Z,5.40
2017-10-07T07:49:11.091Z,4.33
2017-10-07T07:51:38.542Z,4.33
2017-10-07T07:54:06.007Z,4.73
2017-10-07T07:56:34.215Z,4.70
2017-10-07T07:59:01.667Z,4.00
2017-10-07T08:01:29.107Z,4.40
2017-10-07T08:03:56.552Z,4.40
2017-10-07T08:06:24.763Z,4.93
2017-10-07T08:08:52.210Z,4.30
2017-10-07T08:11:19.662Z,3.90
2017-10-07T08:13:47.118Z,3.63
2017-10-07T08:16:14.574Z,3.70
2017-10-07T08:18:42.055Z,3.93
2017-10-07T08:21:09.511Z,3.63
2017-10-07T08:23:36.946Z,4.17
2017-10-07T08:26:04.402Z,3.70
2017-10-07T08:28:31.843Z,2.57
2017-10-07T08:30:59.294Z,2.53
2017-10-07T08:33:26.734Z,1.90
2017-10-07T08:35:54.946Z,2.17
2017-10-07T08:38:22.383Z,2.60
2017-10-07T08:40:49.834Z,2.10
2017-10-07T08:43:17.324Z,2.40
2017-10-07T08:45:44.768Z,2.57
2017-10-07T08:48:12.222Z,2.60
2017-10-07T08:50:39.678Z,2.70
2017-10-07T08:53:07.134Z,2.80
2017-10-07T08:55:35.363Z,2.87
2017-10-07T08:58:02.803Z,2.90
2017-10-07T09:00:30.260Z,2.70
2017-10-07T09:02:57.714Z,2.70
2017-10-07T09:05:25.158Z,2.30
2017-10-07T09:07:52.598Z,3.07
2017-10-07T09:10:20.074Z,2.23
2017-10-07T09:12:47.522Z,2.60
2017-10-07T09:15:15.001Z,3.20
2017-10-07T09:17:42.495Z,3.10
2017-10-07T09:20:09.936Z,2.60
2017-10-07T09:22:38.142Z,1.90
2017-10-07T09:25:05.600Z,1.60
2017-10-07T09:27:33.058Z,2.30
2017-10-07T09:30:00.516Z,2.20
2017-10-07T09:32:27.968Z,1.90
2017-10-07T09:34:55.426Z,1.80
2017-10-07T09:37:22.881Z,1.63
2017-10-07T09:39:51.086Z,1.93
2017-10-07T09:42:18.548Z,1.90
2017-10-07T09:44:45.990Z,1.70
2017-10-07T09:47:13.474Z,1.40
2017-10-07T09:49:40.918Z,1.73
2017-10-07T09:52:08.399Z,1.80
2017-10-07T09:54:36.623Z,1.63
2017-10-07T09:57:04.072Z,1.63
2017-10-07T09:59:31.528Z,1.60
2017-10-07T10:01:58.962Z,1.73
2017-10-07T10:04:26.407Z,1.77
2017-10-07T10:06:54.624Z,1.40
2017-10-07T10:09:22.079Z,1.97
2017-10-07T10:11:49.523Z,2.10
2017-10-07T10:14:16.974Z,1.70
2017-10-07T10:16:44.411Z,1.53
2017-10-07T10:19:11.854Z,1.53
2017-10-07T10:21:40.063Z,1.57
2017-10-07T10:24:07.587Z,1.77
2017-10-07T10:26:35.794Z,2.00
2017-10-07T10:29:03.248Z,1.83
2017-10-07T10:31:30.670Z,1.70
2017-10-07T10:33:58.907Z,1.63
2017-10-07T10:36:26.347Z,1.30
2017-10-07T10:38:53.791Z,1.50
2017-10-07T10:41:21.251Z,1.30
2017-10-07T10:43:48.707Z,1.70
2017-10-07T10:46:16.159Z,2.00
2017-10-07T10:48:43.603Z,1.60
2017-10-07T10:51:11.051Z,1.87
2017-10-07T10:53:39.267Z,1.60
2017-10-07T10:56:06.714Z,1.40
2017-10-07T10:58:34.162Z,1.50
2017-10-07T11:01:01.614Z,1.97
2017-10-07T11:03:29.050Z,1.80
2017-10-07T11:05:56.495Z,1.90
2017-10-07T11:08:24.699Z,1.57
2017-10-07T11:10:52.159Z,1.70
2017-10-07T11:13:19.594Z,1.50
2017-10-07T11:15:47.038Z,1.63
2017-10-07T11:18:15.243Z,1.63
2017-10-07T11:20:43.457Z,1.47
2017-10-07T11:23:10.903Z,1.70
2017-10-07T11:25:38.363Z,1.30
2017-10-07T11:28:05.804Z,1.30
2017-10-07T11:30:33.261Z,2.00
2017-10-07T11:33:00.712Z,1.60
2017-10-07T11:35:28.154Z,1.70
2017-10-07T11:37:55.609Z,1.60
2017-10-07T11:40:23.062Z,1.50
2017-10-07T11:42:50.526Z,1.50
2017-10-07T11:45:18.014Z,1.60
2017-10-07T11:47:45.472Z,1.57
2017-10-07T11:50:12.929Z,1.50
2017-10-07T11:52:40.386Z,2.50
2017-10-07T11:55:07.821Z,2.60
2017-10-07T11:57:35.279Z,4.77
2017-10-07T12:00:02.726Z,2.20
2017-10-07T12:02:30.180Z,1.50
2017-10-07T12:04:57.623Z,1.70
2017-10-07T12:07:25.079Z,1.60
2017-10-07T12:09:52.535Z,1.20
2017-10-07T12:12:19.994Z,1.50
2017-10-07T12:14:47.695Z,1.63
2017-10-07T12:17:15.145Z,1.60
2017-10-07T12:19:42.590Z,1.40
2017-10-07T12:22:10.056Z,1.73
2017-10-07T12:24:37.506Z,1.20
2017-10-07T12:27:04.959Z,2.00
2017-10-07T12:29:32.409Z,1.73
2017-10-07T12:31:59.858Z,1.60
2017-10-07T12:34:27.313Z,1.53
2017-10-07T12:36:54.763Z,1.77
2017-10-07T12:39:22.215Z,1.87
2017-10-07T12:41:49.671Z,1.80
2017-10-07T12:44:17.146Z,1.40
2017-10-07T12:46:44.582Z,1.40
2017-10-07T12:49:12.791Z,1.37
2017-10-07T12:51:40.240Z,1.33
2017-10-07T12:54:07.684Z,1.43
2017-10-07T12:56:35.126Z,1.40
2017-10-07T12:59:02.579Z,1.63
2017-10-07T13:01:30.037Z,1.30
2017-10-07T13:03:57.497Z,1.33
2017-10-07T13:06:24.949Z,1.33
2017-10-07T13:08:52.407Z,1.47
2017-10-07T13:11:19.848Z,1.63
2017-10-07T13:13:48.866Z,1.20
2017-10-07T13:16:16.309Z,1.70
2017-10-07T13:18:43.751Z,1.37
2017-10-07T13:21:11.194Z,1.30
2017-10-07T13:23:39.413Z,1.47
2017-10-07T13:26:06.894Z,1.60
2017-10-07T13:28:34.342Z,1.40
2017-10-07T13:31:01.791Z,1.37
2017-10-07T13:33:29.238Z,1.60
2017-10-07T13:35:56.687Z,1.40
2017-10-07T13:38:24.135Z,1.43
2017-10-07T13:40:51.592Z,1.37
2017-10-07T13:43:19.047Z,1.60
2017-10-07T13:45:46.501Z,1.77
2017-10-07T13:48:13.934Z,1.60
2017-10-07T13:50:41.379Z,1.40
2017-10-07T13:53:09.590Z,2.00
2017-10-07T13:55:37.042Z,1.60
2017-10-07T13:58:04.492Z,1.53
2017-10-07T14:00:31.942Z,1.73
2017-10-07T14:02:59.383Z,1.83
2017-10-07T14:05:35.219Z,1.50
2017-10-07T14:08:02.691Z,2.10
2017-10-07T14:10:30.905Z,1.73
2017-10-07T14:12:58.361Z,1.77
2017-10-07T14:15:25.934Z,1.67
2017-10-07T14:17:53.390Z,2.00
2017-10-07T14:20:20.831Z,1.87
2017-10-07T14:22:48.275Z,2.10
2017-10-07T14:25:15.735Z,1.73
2017-10-07T14:27:43.300Z,1.87
2017-10-07T14:30:10.746Z,1.60
2017-10-07T14:32:38.203Z,1.70
2017-10-07T14:35:05.647Z,1.50
2017-10-07T14:37:33.123Z,1.90
2017-10-07T14:40:00.578Z,1.97
2017-10-07T14:42:28.036Z,1.73
2017-10-07T14:44:56.246Z,1.90
2017-10-07T14:47:23.695Z,1.80
2017-10-07T14:49:51.947Z,2.20
2017-10-07T14:52:20.218Z,2.53
2017-10-07T14:54:47.695Z,2.40
2017-10-07T14:57:15.147Z,2.23
2017-10-07T14:59:42.667Z,1.90
2017-10-07T15:02:10.996Z,2.80
2017-10-07T15:04:38.472Z,2.63
2017-10-07T15:07:06.733Z,2.30
2017-10-07T15:09:34.178Z,2.57
2017-10-07T15:12:01.650Z,2.53
2017-10-07T15:14:29.891Z,2.30
2017-10-07T15:16:57.344Z,2.33
2017-10-07T15:19:24.804Z,2.57
2017-10-07T15:21:52.258Z,2.00
2017-10-07T15:24:19.699Z,2.30
2017-10-07T15:26:47.161Z,2.63
2017-10-07T15:29:14.612Z,2.27
2017-10-07T15:31:42.411Z,2.37
2017-10-07T15:34:09.890Z,2.10
2017-10-07T15:36:38.108Z,2.33
2017-10-07T15:39:05.570Z,2.30
2017-10-07T15:41:33.012Z,2.33
2017-10-07T15:44:00.451Z,2.10
2017-10-07T15:46:27.937Z,2.80
2017-10-07T15:48:55.478Z,2.80
2017-10-07T15:51:22.980Z,3.17
2017-10-07T15:53:50.440Z,3.00
2017-10-07T15:56:17.883Z,2.87
2017-10-07T15:58:45.343Z,2.50
2017-10-07T16:01:12.783Z,2.07
2017-10-07T16:03:40.239Z,2.67
2017-10-07T16:06:07.688Z,2.17
2017-10-07T16:08:35.143Z,2.57
2017-10-07T16:11:03.514Z,2.40
2017-10-07T16:13:30.958Z,3.30
2017-10-07T16:15:58.395Z,2.83
2017-10-07T16:18:25.963Z,3.13
2017-10-07T16:20:54.245Z,2.80
2017-10-07T16:23:21.700Z,2.90
2017-10-07T16:25:49.195Z,4.27
2017-10-07T16:28:16.854Z,3.00
2017-10-07T16:33:28.584Z,3.20
2017-10-07T16:35:56.859Z,3.43
2017-10-07T16:38:24.312Z,3.10
2017-10-07T16:40:51.762Z,4.03
2017-10-07T16:43:19.212Z,3.70
2017-10-07T16:45:47.920Z,2.70
2017-10-07T16:48:35.801Z,3.00
2017-10-07T16:51:05.495Z,3.10
2017-10-07T16:53:34.691Z,5.07
2017-10-07T16:56:02.202Z,3.77
2017-10-07T16:58:30.763Z,3.60
2017-10-07T17:00:58.897Z,6.20
2017-10-07T17:03:29.397Z,4.40
2017-10-07T17:08:55.270Z,3.63
2017-10-07T17:11:26.488Z,3.80
2017-10-07T17:13:54.059Z,3.40
2017-10-07T17:16:21.613Z,5.57
2017-10-07T17:18:49.125Z,5.70
2017-10-07T17:21:16.686Z,6.10
2017-10-07T17:23:44.171Z,5.80
2017-10-07T17:26:11.627Z,4.30
2017-10-07T17:28:39.084Z,3.47
2017-10-07T17:31:06.550Z,3.40
2017-10-07T17:33:34.028Z,3.57
2017-10-07T17:36:01.468Z,3.73
2017-10-07T17:38:28.911Z,3.73
2017-10-07T17:40:56.367Z,5.17
2017-10-07T17:43:23.823Z,6.30
2017-10-07T17:45:52.245Z,5.70
2017-10-07T17:48:22.760Z,6.07
2017-10-07T17:50:51.203Z,6.33
2017-10-07T17:53:18.679Z,13.30
2017-10-07T17:55:46.135Z,6.60
2017-10-07T17:58:13.592Z,7.10
2017-10-07T18:00:41.038Z,5.80
2017-10-07T18:03:08.498Z,5.03
2017-10-07T18:05:36.855Z,4.70
2017-10-07T18:08:04.299Z,5.20
2017-10-07T18:10:31.739Z,5.67
2017-10-07T18:12:59.191Z,5.90
2017-10-07T18:15:28.197Z,6.67
2017-10-07T18:17:56.432Z,4.87
2017-10-07T18:20:23.895Z,4.60
2017-10-07T18:22:51.350Z,4.53
2017-10-07T18:25:18.791Z,4.63
2017-10-07T18:27:56.441Z,3.70
2017-10-07T18:30:31.840Z,4.23
2017-10-07T18:32:59.375Z,4.00
2017-10-07T18:35:26.861Z,5.03
2017-10-07T18:37:54.310Z,4.10
2017-10-07T18:40:21.760Z,3.80
2017-10-07T18:42:49.210Z,4.00
2017-10-07T18:45:16.654Z,4.77
2017-10-07T18:47:44.102Z,4.27
2017-10-07T18:50:12.563Z,4.50
2017-10-07T18:52:40.809Z,5.13
2017-10-07T18:55:40.990Z,3.80
2017-10-07T18:58:12.162Z,4.80
2017-10-07T19:01:03.403Z,3.87
2017-10-07T19:03:30.915Z,4.33
2017-10-07T19:05:58.392Z,4.20
2017-10-07T19:08:25.848Z,3.23
2017-10-07T19:10:56.129Z,2.80
2017-10-07T19:13:23.639Z,2.80
2017-10-07T19:15:51.100Z,3.20
2017-10-07T19:18:18.561Z,3.10
2017-10-07T19:20:50.338Z,2.70
2017-10-07T19:23:17.867Z,3.37
2017-10-07T19:37:25.865Z,3.30
2017-10-07T19:44:32.300Z,2.60
2017-10-07T19:53:09.772Z,2.43
2017-10-07T19:55:37.312Z,2.60
2017-10-07T19:58:04.795Z,1.93
2017-10-07T20:00:32.263Z,2.20
2017-10-07T20:03:01.001Z,2.20
2017-10-07T20:05:29.286Z,2.47
2017-10-07T20:07:56.762Z,2.73
2017-10-07T20:10:24.292Z,3.27
2017-10-07T20:12:51.828Z,2.27
2017-10-07T23:13:22.287Z,1.90
2017-10-07T23:16:12.694Z,1.93
2017-10-07T23:18:47.975Z,1.53
2017-10-07T23:21:19.303Z,1.80
2017-10-07T23:24:00.380Z,1.70
